Time;durP1;ratioP1;P1;durP2;ratioP2;P2;SDS_P1;SDS_P2;PMS_P1;PMS_P2;Temp;Humidity;BMP_temperature;BMP_pressure;BME280_temperature;BME280_humidity;BME280_pressure;Samples;Min_cycle;Max_cycle;Signal;HPM_P1;HPM_P2
2024/02/28 00:01:16;;;;;;;0.20;0.20;;;;;;;7.60;76.48;101799.59;4973508;28;20034;-84
2024/02/28 00:03:41;;;;;;;0.20;0.20;;;;;;;7.65;76.42;101808.91;4957875;28;20034;-84
2024/02/28 00:06:07;;;;;;;0.20;0.20;;;;;;;7.58;76.24;101816.78;4973126;28;20077;-84
2024/02/28 00:08:32;;;;;;;0.20;0.20;;;;;;;7.54;75.69;101820.28;4957555;28;20018;-83
2024/02/28 00:10:58;;;;;;;0.20;0.20;;;;;;;7.46;75.69;101822.97;4973767;28;20026;-83
2024/02/28 00:13:24;;;;;;;0.20;0.20;;;;;;;7.39;76.23;101806.81;4973649;28;20381;-84
2024/02/28 00:15:50;;;;;;;0.20;0.20;;;;;;;7.51;76.27;101821.19;4990052;28;20404;-84
2024/02/28 00:18:16;;;;;;;0.20;0.20;;;;;;;7.43;76.24;101815.31;4973521;28;20121;-84
2024/02/28 00:20:44;;;;;;;0.20;0.20;;;;;;;7.42;76.24;101806.75;4956981;28;20031;-84
2024/02/28 00:23:09;;;;;;;0.20;0.20;;;;;;;7.40;76.24;101807.66;4974241;28;20026;-84
2024/02/28 00:25:35;;;;;;;0.20;0.20;;;;;;;7.49;75.47;101804.94;4973868;28;20037;-84
2024/02/28 00:28:00;;;;;;;0.20;0.20;;;;;;;7.53;75.58;101814.28;4977492;28;20030;-84
2024/02/28 00:30:28;;;;;;;0.20;0.20;;;;;;;7.47;75.71;101810.09;4961373;28;20042;-84
2024/02/28 00:32:54;;;;;;;0.20;0.20;;;;;;;7.37;75.79;101799.97;4977722;28;20053;-84
2024/02/28 00:35:19;;;;;;;0.20;0.20;;;;;;;7.38;76.34;101794.81;4977118;28;20030;-84
2024/02/28 00:37:45;;;;;;;0.20;0.20;;;;;;;7.30;75.69;101790.66;4961331;28;20459;-83
2024/02/28 00:40:11;;;;;;;0.20;0.20;;;;;;;7.29;75.98;101788.97;4977211;28;20647;-83
2024/02/28 00:42:36;;;;;;;0.20;0.20;;;;;;;7.27;76.05;101808.72;4945089;28;20053;-83
2024/02/28 00:45:03;;;;;;;0.20;0.20;;;;;;;7.21;76.25;101811.41;4977275;28;20412;-84
2024/02/28 00:47:28;;;;;;;0.20;0.20;;;;;;;7.19;76.57;101814.00;4961263;28;20033;-84
2024/02/28 00:49:54;;;;;;;0.20;0.20;;;;;;;7.14;76.57;101798.63;4976892;28;20408;-83
2024/02/28 00:52:19;;;;;;;0.20;0.20;;;;;;;7.22;76.72;101813.09;4945042;28;20420;-84
2024/02/28 00:54:45;;;;;;;0.20;0.20;;;;;;;7.04;76.72;101789.34;4976817;28;20066;-83
2024/02/28 00:57:10;;;;;;;0.20;0.20;;;;;;;7.19;76.52;101814.84;4976919;28;20105;-84
2024/02/28 00:59:36;;;;;;;0.20;0.20;;;;;;;7.19;76.22;101803.72;4976788;28;20560;-84
2024/02/28 01:02:03;;;;;;;0.20;0.20;;;;;;;7.09;76.76;101792.72;4977033;28;20038;-84
2024/02/28 01:04:29;;;;;;;0.20;0.20;;;;;;;7.27;76.73;101801.84;4960716;28;20038;-83
2024/02/28 01:06:54;;;;;;;0.20;0.20;;;;;;;7.28;76.40;101807.88;4976904;28;20026;-84
2024/02/28 01:09:21;;;;;;;0.20;0.20;;;;;;;7.28;76.46;101800.16;4976860;28;20034;-83
2024/02/28 01:11:47;;;;;;;0.20;0.20;;;;;;;7.31;76.16;101800.09;4976617;28;20069;-83
2024/02/28 01:14:12;;;;;;;0.20;0.20;;;;;;;7.39;76.23;101806.81;4992799;28;20030;-84
2024/02/28 01:16:38;;;;;;;0.20;0.20;;;;;;;7.24;76.42;101798.47;4976448;28;20426;-84
2024/02/28 01:19:03;;;;;;;0.20;0.20;;;;;;;7.28;76.67;101807.88;4993754;28;20061;-83
2024/02/28 01:21:29;;;;;;;0.20;0.20;;;;;;;7.23;76.54;101807.94;4960622;28;20046;-84
2024/02/28 01:23:54;;;;;;;0.20;0.20;;;;;;;7.19;76.59;101794.25;4960378;28;20026;-83
2024/02/28 01:26:22;;;;;;;0.20;0.20;;;;;;;7.30;76.35;101793.25;4976449;28;20108;-84
2024/02/28 01:28:48;;;;;;;0.20;0.20;;;;;;;7.34;75.99;101807.75;4960630;28;20054;-84
2024/02/28 01:31:13;;;;;;;0.20;0.20;;;;;;;7.43;75.77;101823.88;4976320;28;20065;-83
2024/02/28 01:33:40;;;;;;;0.20;0.20;;;;;;;7.35;76.01;101812.00;4976407;28;20057;-84
2024/02/28 01:36:08;;;;;;;0.20;0.20;;;;;;;7.45;75.63;101819.56;4976140;28;20511;-83
2024/02/28 01:38:34;;;;;;;0.20;0.20;;;;;;;7.47;75.61;101815.25;4959839;28;20576;-83
2024/02/28 01:40:59;;;;;;;0.20;0.20;;;;;;;7.50;75.24;101827.22;4960024;28;20528;-84
2024/02/28 01:43:25;;;;;;;0.20;0.20;;;;;;;7.45;75.41;101823.84;4993561;28;20117;-83
2024/02/28 01:45:51;;;;;;;0.20;0.20;;;;;;;7.35;75.76;101820.59;4976445;28;20488;-83
2024/02/28 01:48:16;;;;;;;0.20;0.20;;;;;;;7.50;75.89;101839.25;4959685;28;20496;-84
2024/02/28 01:50:42;;;;;;;0.20;0.20;;;;;;;7.38;76.39;101824.84;4959873;28;20042;-83
2024/02/28 01:53:08;;;;;;;0.20;0.20;;;;;;;7.43;76.42;101828.19;4960298;28;20396;-84
2024/02/28 01:55:35;;;;;;;0.20;0.20;;;;;;;7.44;75.77;101817.00;4992237;28;20026;-83
2024/02/28 01:58:01;;;;;;;0.20;0.20;;;;;;;7.50;75.74;101818.66;4943949;28;20050;-83
2024/02/28 02:00:27;;;;;;;0.20;0.20;;;;;;;7.54;75.17;101828.84;4959806;28;20131;-83
2024/02/28 02:02:52;;;;;;;0.20;0.20;;;;;;;7.54;75.31;101823.69;4959649;28;20497;-83
2024/02/28 02:05:20;;;;;;;0.20;0.20;;;;;;;7.56;75.14;101819.38;4959757;28;20037;-84
2024/02/28 02:07:48;;;;;;;0.20;0.20;;;;;;;7.62;74.95;101832.16;4975671;28;20477;-83
2024/02/28 02:10:13;;;;;;;0.20;0.20;;;;;;;7.47;74.97;101819.53;4991897;28;20030;-83
2024/02/28 02:12:39;;;;;;;0.20;0.20;;;;;;;7.61;74.64;101825.31;4959834;28;20452;-84
2024/02/28 02:15:05;;;;;;;0.20;0.20;;;;;;;7.70;74.25;101838.03;4975570;28;20035;-83
2024/02/28 02:17:30;;;;;;;0.20;0.20;;;;;;;7.58;74.49;101811.66;4943573;28;20023;-84
2024/02/28 02:19:56;;;;;;;0.20;0.20;;;;;;;7.70;74.20;101843.19;4959290;28;20037;-84
2024/02/28 02:22:21;;;;;;;0.20;0.20;;;;;;;7.70;74.30;101835.44;4959455;28;20034;-84
2024/02/28 02:24:47;;;;;;;0.20;0.20;;;;;;;7.78;73.97;101834.47;4975434;28;20026;-84
2024/02/28 02:27:12;;;;;;;0.20;0.20;;;;;;;7.70;73.61;101820.00;4975458;28;20057;-84
2024/02/28 02:29:38;;;;;;;0.20;0.20;;;;;;;7.63;73.86;101820.13;4974829;28;20531;-83
2024/02/28 02:32:04;;;;;;;0.20;0.20;;;;;;;7.78;73.71;101834.47;4943259;28;20520;-84
2024/02/28 02:34:29;;;;;;;0.20;0.20;;;;;;;7.74;73.76;101838.81;4943415;28;20097;-84
2024/02/28 02:36:55;;;;;;;0.20;0.20;;;;;;;7.69;73.61;101826.03;4943008;28;20026;-84
2024/02/28 02:39:21;;;;;;;0.20;0.20;;;;;;;7.75;73.26;101838.78;4991337;28;20034;-84
2024/02/28 02:41:47;;;;;;;0.20;0.20;;;;;;;7.67;73.96;101838.09;4942668;28;20038;-83
2024/02/28 02:44:12;;;;;;;0.20;0.20;;;;;;;7.65;73.85;101834.66;4974590;28;20022;-84
2024/02/28 02:46:39;;;;;;;0.20;0.20;;;;;;;7.64;74.13;101840.69;4991183;28;20385;-84
2024/02/28 02:49:04;;;;;;;0.20;0.20;;;;;;;7.55;74.32;101833.13;4942131;28;20035;-84
2024/02/28 02:51:30;;;;;;;0.20;0.20;;;;;;;7.56;74.11;101834.81;4991176;28;20050;-84
2024/02/28 02:53:55;;;;;;;0.20;0.20;;;;;;;7.64;74.13;101845.84;4992138;28;20030;-84
2024/02/28 02:56:21;;;;;;;0.20;0.20;;;;;;;7.63;73.63;101831.28;4942761;28;20034;-84
2024/02/28 02:58:46;;;;;;;0.20;0.20;;;;;;;7.59;73.64;101832.22;4958240;28;20038;-83
2024/02/28 03:01:12;;;;;;;0.20;0.20;;;;;;;7.64;73.30;101832.13;4974474;28;20120;-84
2024/02/28 03:03:38;;;;;;;0.25;0.25;;;;;;;7.60;73.65;101830.50;4959047;28;20026;-84
2024/02/28 03:06:05;;;;;;;0.20;0.20;;;;;;;7.56;73.30;101829.66;4990506;28;20393;-83
2024/02/28 03:08:31;;;;;;;0.20;0.20;;;;;;;7.47;73.55;101824.69;4991122;28;20511;-83
2024/02/28 03:10:58;;;;;;;0.20;0.20;;;;;;;7.51;74.03;101841.78;4942505;28;20022;-84
2024/02/28 03:13:23;;;;;;;0.20;0.20;;;;;;;7.51;73.91;101840.94;4957981;28;20504;-84
2024/02/28 03:15:49;;;;;;;0.20;0.20;;;;;;;7.49;73.84;101848.69;4990411;28;20042;-84
2024/02/28 03:18:14;;;;;;;0.20;0.20;;;;;;;7.52;73.79;101855.50;4974508;28;20444;-84
2024/02/28 03:20:40;;;;;;;0.20;0.20;;;;;;;7.47;73.59;101843.56;4974321;28;20507;-83
2024/02/28 03:23:06;;;;;;;0.20;0.20;;;;;;;7.47;73.61;101841.00;4974452;28;20070;-84
2024/02/28 03:25:34;;;;;;;0.20;0.20;;;;;;;7.43;73.57;101830.75;4990519;28;20037;-83
2024/02/28 03:28:01;;;;;;;0.20;0.20;;;;;;;7.45;73.70;101847.03;4973758;28;20030;-83
2024/02/28 03:30:26;;;;;;;0.20;0.20;;;;;;;7.45;73.44;101853.03;4958493;28;20077;-83
2024/02/28 03:32:52;;;;;;;0.20;0.20;;;;;;;7.53;73.26;101860.63;4973970;28;20030;-84
2024/02/28 03:35:17;;;;;;;0.20;0.20;;;;;;;7.23;73.19;101825.94;4973988;28;20493;-84
2024/02/28 03:37:43;;;;;;;0.20;0.20;;;;;;;7.40;73.68;101859.16;4974061;28;20045;-83
2024/02/28 03:40:09;;;;;;;0.20;0.20;;;;;;;7.29;73.87;101850.75;4973980;28;20031;-83
2024/02/28 03:42:34;;;;;;;0.20;0.20;;;;;;;7.29;73.92;101846.44;4957657;28;20038;-83
2024/02/28 03:45:00;;;;;;;0.20;0.20;;;;;;;7.34;73.99;101859.22;4957994;28;20026;-83
2024/02/28 03:47:26;;;;;;;0.20;0.20;;;;;;;7.27;74.30;101857.63;4958007;28;20030;-83
2024/02/28 03:49:51;;;;;;;0.20;0.20;;;;;;;7.12;74.50;101845.84;4957797;28;20061;-84
2024/02/28 03:52:17;;;;;;;0.20;0.20;;;;;;;7.30;74.53;101868.75;4973881;28;20070;-83
2024/02/28 03:54:43;;;;;;;0.20;0.20;;;;;;;7.29;74.45;101863.63;4957416;28;20080;-83
2024/02/28 03:57:09;;;;;;;0.20;0.20;;;;;;;7.33;74.22;101865.25;4973524;28;20026;-83
2024/02/28 03:59:34;;;;;;;0.20;0.20;;;;;;;7.34;73.72;101869.53;4973641;28;20412;-83
2024/02/28 04:02:00;;;;;;;0.20;0.20;;;;;;;7.26;74.29;101868.78;4973479;28;20511;-84
2024/02/28 04:04:25;;;;;;;0.20;0.20;;;;;;;7.28;74.32;101887.66;4941800;28;20122;-83
2024/02/28 04:06:51;;;;;;;0.20;0.20;;;;;;;7.23;74.04;101876.56;4941590;28;20047;-84
2024/02/28 04:09:17;;;;;;;0.20;0.20;;;;;;;7.19;74.15;101871.47;4941757;28;20031;-85
2024/02/28 04:11:42;;;;;;;0.20;0.20;;;;;;;7.00;74.23;101839.16;4989509;28;20022;-85
2024/02/28 04:14:08;;;;;;;0.20;0.20;;;;;;;7.16;74.02;101860.34;4989821;28;20037;-85
2024/02/28 04:16:34;;;;;;;0.20;0.20;;;;;;;7.26;73.81;101873.94;4973659;28;20105;-87
2024/02/28 04:18:59;;;;;;;0.20;0.20;;;;;;;7.12;74.00;101864.72;4991191;28;20511;-87
2024/02/28 04:21:25;;;;;;;0.20;0.20;;;;;;;7.06;73.87;101851.94;4989586;28;20495;-87
2024/02/28 04:23:50;;;;;;;0.20;0.20;;;;;;;7.18;74.14;101879.22;4989626;28;20037;-87
2024/02/28 04:26:16;;;;;;;0.20;0.20;;;;;;;7.06;74.08;101864.78;4973246;28;20023;-88
2024/02/28 04:28:42;;;;;;;0.20;0.20;;;;;;;7.12;74.13;101874.16;4957445;28;20030;-86
2024/02/28 04:31:09;;;;;;;0.20;0.20;;;;;;;7.02;74.12;101876.00;4957352;28;20101;-85
2024/02/28 04:33:35;;;;;;;0.20;0.20;;;;;;;7.02;74.46;101877.75;4957967;28;20488;-86
2024/02/28 04:36:01;;;;;;;0.20;0.20;;;;;;;7.02;74.16;101868.28;4989630;28;20027;-87
2024/02/28 04:38:26;;;;;;;0.20;0.20;;;;;;;7.07;74.39;101881.94;4989617;28;20040;-85
2024/02/28 04:40:52;;;;;;;0.20;0.20;;;;;;;7.06;74.49;101879.38;4956918;28;20516;-84
2024/02/28 04:43:17;;;;;;;0.20;0.20;;;;;;;6.85;74.53;101870.25;4972293;28;20057;-86
2024/02/28 04:45:43;;;;;;;0.20;0.20;;;;;;;6.84;74.84;101883.97;4957704;28;20404;-86
2024/02/28 04:48:09;;;;;;;0.20;0.20;;;;;;;6.87;75.20;101889.06;4941216;28;20417;-87
2024/02/28 04:50:35;;;;;;;0.20;0.20;;;;;;;6.70;75.35;101852.47;4973062;28;20076;-85
2024/02/28 04:53:01;;;;;;;0.20;0.20;;;;;;;6.90;74.77;101886.47;4957196;28;20058;-86
2024/02/28 04:55:26;;;;;;;0.20;0.20;;;;;;;6.94;74.90;101889.84;4957131;28;20496;-85
2024/02/28 04:57:52;;;;;;;0.20;0.20;;;;;;;6.85;74.83;101881.38;4941104;28;20068;-85
2024/02/28 05:00:17;;;;;;;0.20;0.20;;;;;;;6.79;75.08;101872.91;4957153;28;20122;-85
2024/02/28 05:02:43;;;;;;;0.20;0.20;;;;;;;6.86;75.45;101892.53;4955249;28;20030;-85
2024/02/28 05:05:08;;;;;;;0.20;0.20;;;;;;;6.75;74.99;101877.22;4957202;28;20425;-83
2024/02/28 05:07:34;;;;;;;0.20;0.20;;;;;;;6.85;75.21;101895.97;4956969;28;20400;-85
2024/02/28 05:09:59;;;;;;;0.20;0.20;;;;;;;6.79;75.16;101885.78;4939958;28;20022;-84
2024/02/28 05:12:25;;;;;;;0.20;0.20;;;;;;;6.83;75.12;101890.84;4991653;28;20038;-87
2024/02/28 05:14:51;;;;;;;0.20;0.20;;;;;;;6.90;74.81;101901.91;4942951;28;20034;-85
2024/02/28 05:17:17;;;;;;;0.20;0.20;;;;;;;6.67;75.06;101876.47;4993051;28;20030;-85
2024/02/28 05:19:42;;;;;;;0.20;0.20;;;;;;;6.84;75.14;101902.00;4992234;28;20492;-88
2024/02/28 05:22:09;;;;;;;0.20;0.20;;;;;;;6.69;74.81;101900.47;4994401;28;20093;-86
2024/02/28 05:24:35;;;;;;;0.20;0.20;;;;;;;6.76;74.67;101909.78;4959954;28;20035;-87
2024/02/28 05:27:00;;;;;;;0.20;0.20;;;;;;;6.75;74.22;101910.66;4960063;28;20050;-86
2024/02/28 05:29:26;;;;;;;0.20;0.20;;;;;;;6.59;74.09;101907.44;4960942;28;20124;-88
2024/02/28 05:31:51;;;;;;;0.20;0.20;;;;;;;6.60;74.64;101913.44;4977088;28;20056;-88
2024/02/28 05:34:17;;;;;;;0.20;0.20;;;;;;;6.62;74.04;101924.56;4996359;28;20050;-92
2024/02/28 05:36:43;;;;;;;0.20;0.20;;;;;;;6.50;74.25;101922.13;4989890;28;20034;-91
2024/02/28 05:39:08;;;;;;;0.20;0.20;;;;;;;6.28;74.11;101888.94;4984133;28;20406;-90
2024/02/28 05:41:34;;;;;;;0.20;0.20;;;;;;;6.33;73.67;101915.44;5036310;23;20120;-89
2024/02/28 05:43:59;;;;;;;0.20;0.20;;;;;;;6.18;74.52;101918.16;4994834;28;20540;-89
2024/02/28 05:46:25;;;;;;;0.20;0.20;;;;;;;6.22;74.34;101919.00;4995658;28;20511;-88
2024/02/28 05:48:51;;;;;;;0.20;0.20;;;;;;;6.38;74.37;101955.66;4977172;28;20084;-93
2024/02/28 05:51:16;;;;;;;0.20;0.20;;;;;;;6.23;74.85;101951.53;4977884;28;20056;-88
2024/02/28 05:53:42;;;;;;;0.20;0.20;;;;;;;6.29;74.46;101942.06;4957358;28;20060;-86
2024/02/28 05:56:13;;;;;;;0.20;0.20;;;;;;;6.43;74.04;101965.03;4961539;28;20405;-89
2024/02/28 05:58:45;;;;;;;0.20;0.20;;;;;;;6.30;74.05;101958.34;4989642;28;20030;-91
2024/02/28 06:01:11;;;;;;;0.20;0.20;;;;;;;6.17;74.16;101939.59;4974177;28;20089;-84
2024/02/28 06:03:38;;;;;;;0.20;0.20;;;;;;;6.36;74.49;101960.81;5000901;28;20442;-93
2024/02/28 06:06:06;;;;;;;0.20;0.20;;;;;;;6.49;73.80;101954.72;4984446;28;20100;-93
2024/02/28 06:08:33;;;;;;;0.20;0.20;;;;;;;6.56;73.04;101946.03;4974670;28;20046;-89
2024/02/28 06:10:58;;;;;;;0.20;0.20;;;;;;;6.74;73.43;101959.56;4978644;28;20038;-85
2024/02/28 06:13:24;;;;;;;0.20;0.20;;;;;;;6.63;73.01;101931.41;4973668;28;20030;-87
2024/02/28 06:15:50;;;;;;;0.20;0.20;;;;;;;6.83;72.26;101956.88;4989909;28;20516;-89
2024/02/28 06:18:15;;;;;;;0.20;0.20;;;;;;;6.80;72.09;101959.50;4958005;28;20038;-85
2024/02/28 06:20:41;;;;;;;0.20;0.20;;;;;;;6.74;72.49;101946.69;4974495;28;20030;-89
2024/02/28 06:23:07;;;;;;;0.20;0.20;;;;;;;6.79;71.79;101942.38;4971278;28;20101;-86
2024/02/28 06:25:34;;;;;;;0.20;0.20;;;;;;;6.93;72.55;101981.63;4990768;28;20137;-90
2024/02/28 06:28:00;;;;;;;0.20;0.20;;;;;;;6.94;72.32;101977.31;4972515;28;20034;-88
2024/02/28 06:30:25;;;;;;;0.20;0.20;;;;;;;7.11;72.14;101996.84;4976933;28;20021;-86
2024/02/28 06:32:51;;;;;;;0.20;0.20;;;;;;;7.09;72.40;101985.72;4988450;28;20030;-88
2024/02/28 06:35:17;;;;;;;0.20;0.20;;;;;;;7.15;71.84;101989.91;4990936;28;20038;-87
2024/02/28 06:37:48;;;;;;;0.20;0.20;;;;;;;7.27;71.98;102001.75;4978833;28;20022;-93
2024/02/28 06:40:13;;;;;;;0.20;0.20;;;;;;;7.16;72.02;101969.31;4973961;28;20038;-88
2024/02/28 06:42:39;;;;;;;0.20;0.20;;;;;;;7.45;71.95;101996.38;4975939;28;20116;-91
2024/02/28 06:45:05;;;;;;;0.20;0.20;;;;;;;7.42;70.78;101997.28;4990208;28;20042;-88
2024/02/28 06:47:32;;;;;;;0.20;0.20;;;;;;;7.47;70.61;101997.19;4957825;28;20032;-85
2024/02/28 06:49:58;;;;;;;0.20;0.20;;;;;;;7.44;71.40;101984.38;4972593;28;20503;-89
2024/02/28 06:52:23;;;;;;;0.20;0.20;;;;;;;7.45;71.36;101988.66;4942430;28;20050;-90
2024/02/28 06:54:49;;;;;;;0.20;0.20;;;;;;;7.44;70.95;101982.66;4978149;28;20038;-89
2024/02/28 06:57:14;;;;;;;0.20;0.20;;;;;;;7.50;70.41;101986.03;4992855;28;20381;-87
2024/02/28 06:59:40;;;;;;;0.20;0.20;;;;;;;7.42;70.79;101978.41;4991842;28;20061;-87
2024/02/28 07:02:05;;;;;;;0.20;0.20;;;;;;;7.49;70.54;101980.03;4992628;28;20068;-90
2024/02/28 07:04:31;;;;;;;0.20;0.20;;;;;;;7.58;71.04;102010.78;4965931;28;20088;-87
2024/02/28 07:06:57;;;;;;;0.20;0.20;;;;;;;7.51;70.73;101996.28;4981552;28;20034;-88
2024/02/28 07:09:25;;;;;;;0.20;0.20;;;;;;;7.68;70.72;102001.22;4992207;28;20041;-92
2024/02/28 07:11:51;;;;;;;0.20;0.20;;;;;;;7.89;70.91;102012.91;4976848;28;20563;-90
2024/02/28 07:14:16;;;;;;;0.20;0.20;;;;;;;8.01;70.58;102005.81;4974336;28;20070;-86
2024/02/28 07:16:43;;;;;;;0.20;0.20;;;;;;;8.12;70.63;102005.63;4974138;28;20076;-89
2024/02/28 07:19:09;;;;;;;0.20;0.20;;;;;;;8.16;70.08;102002.16;4970482;28;20089;-83
2024/02/28 07:21:36;;;;;;;0.20;0.20;;;;;;;8.17;70.12;101982.38;4954309;28;20030;-88
2024/02/28 07:24:04;;;;;;;0.20;0.20;;;;;;;8.15;69.49;101974.66;4975530;28;20121;-88
2024/02/28 07:26:30;;;;;;;0.20;0.20;;;;;;;8.39;70.16;102006.94;4991572;28;20484;-90
2024/02/28 07:28:55;;;;;;;0.20;0.20;;;;;;;8.50;70.32;102010.16;4959841;28;20099;-87
2024/02/28 07:31:22;;;;;;;0.20;0.20;;;;;;;8.50;70.44;102001.56;4976891;28;20053;-89
2024/02/28 07:33:47;;;;;;;0.20;0.20;;;;;;;8.48;70.38;101988.72;4964759;28;20093;-88
2024/02/28 07:36:13;;;;;;;0.20;0.20;;;;;;;8.71;70.06;101998.59;4969709;28;20489;-87
2024/02/28 07:38:40;;;;;;;0.20;0.20;;;;;;;8.86;69.40;102012.94;4972216;28;20440;-88
2024/02/28 07:41:06;;;;;;;0.20;0.20;;;;;;;8.93;69.30;102000.75;4946768;28;20117;-91
2024/02/28 07:43:36;;;;;;;0.20;0.20;;;;;;;9.09;69.59;101999.56;4922882;28;20146;-88
2024/02/28 07:46:02;;;;;;;0.20;0.20;;;;;;;9.07;69.19;102003.91;4980886;28;20046;-90
2024/02/28 07:48:28;;;;;;;0.20;0.20;;;;;;;9.14;69.01;102002.88;4986150;28;20031;-93
2024/02/28 07:50:53;;;;;;;0.20;0.20;;;;;;;9.21;68.39;102007.03;4987066;28;20029;-86
2024/02/28 07:53:19;;;;;;;0.20;0.20;;;;;;;9.22;68.33;102003.56;4992067;28;20041;-86
2024/02/28 07:55:45;;;;;;;0.20;0.20;;;;;;;9.36;67.79;102017.06;4991498;28;20030;-91
2024/02/28 07:58:10;;;;;;;0.20;0.20;;;;;;;9.41;67.55;102017.78;4957350;28;20068;-90
2024/02/28 08:00:36;;;;;;;0.20;0.20;;;;;;;9.25;67.65;101995.78;4959544;28;20066;-91
2024/02/28 08:03:02;;;;;;;0.20;0.20;;;;;;;9.29;67.64;102010.31;4974252;28;20037;-89
2024/02/28 08:05:27;;;;;;;0.20;0.20;;;;;;;9.18;67.76;102004.53;4991226;28;20023;-89
2024/02/28 08:07:53;;;;;;;0.22;0.22;;;;;;;9.18;67.96;102017.44;4975619;28;20026;-89
2024/02/28 08:10:21;;;;;;;0.20;0.20;;;;;;;9.15;68.40;102018.34;4996048;28;20042;-95
2024/02/28 08:12:47;;;;;;;0.20;0.20;;;;;;;9.18;68.24;102017.44;4991775;28;20022;-92
2024/02/28 08:15:12;;;;;;;0.20;0.20;;;;;;;9.34;67.68;102011.06;4970457;28;20069;-92
2024/02/28 08:17:38;;;;;;;0.20;0.20;;;;;;;9.48;67.29;102019.34;4964916;28;20031;-90
2024/02/28 08:20:05;;;;;;;0.20;0.20;;;;;;;9.49;66.72;102013.31;4973030;28;20022;-91
2024/02/28 08:22:31;;;;;;;0.20;0.20;;;;;;;9.59;66.64;102010.50;4991817;28;20034;-91
2024/02/28 08:24:57;;;;;;;0.20;0.20;;;;;;;9.63;66.77;102012.13;4976864;28;20023;-91
2024/02/28 08:27:23;;;;;;;0.20;0.20;;;;;;;9.75;66.54;102012.72;4978231;28;20122;-92
2024/02/28 08:29:49;;;;;;;0.20;0.20;;;;;;;9.62;66.25;101982.88;4959951;28;20554;-89
2024/02/28 08:32:15;;;;;;;0.20;0.20;;;;;;;9.85;65.41;102010.78;4974229;28;20038;-89
2024/02/28 08:34:44;;;;;;;0.30;0.30;;;;;;;9.96;65.53;102006.19;4975981;28;20515;-90
2024/02/28 08:37:10;;;;;;;0.20;0.20;;;;;;;9.97;65.26;102001.88;4966185;28;20424;-90
2024/02/28 08:39:36;;;;;;;0.20;0.20;;;;;;;9.94;65.45;101989.88;4979861;28;20030;-89
2024/02/28 08:42:01;;;;;;;0.20;0.20;;;;;;;10.18;65.21;102003.06;4988261;28;20523;-89
2024/02/28 08:44:27;;;;;;;0.20;0.20;;;;;;;10.07;64.60;101986.09;4990362;28;20443;-89
2024/02/28 08:46:52;;;;;;;0.20;0.20;;;;;;;10.16;64.60;101995.34;4974165;28;20100;-91
2024/02/28 08:49:18;;;;;;;0.20;0.20;;;;;;;10.10;65.16;101990.31;4996344;28;20062;-89
2024/02/28 08:51:43;;;;;;;0.20;0.20;;;;;;;10.05;64.88;101981.84;4974673;28;20031;-91
2024/02/28 08:54:09;;;;;;;0.20;0.20;;;;;;;10.02;65.03;101980.16;4962348;28;20555;-86
2024/02/28 08:56:34;;;;;;;0.20;0.20;;;;;;;10.17;65.32;101989.28;4987991;28;20026;-86
2024/02/28 08:59:00;;;;;;;0.20;0.20;;;;;;;10.32;64.72;101995.81;4980769;28;20027;-86
2024/02/28 09:01:25;;;;;;;0.20;0.20;;;;;;;10.39;64.09;101986.16;4956084;28;20517;-88
2024/02/28 09:03:51;;;;;;;0.20;0.20;;;;;;;10.57;63.69;101991.69;4943543;28;20089;-85
2024/02/28 09:06:17;;;;;;;0.20;0.20;;;;;;;10.50;63.70;101977.22;4988404;28;20033;-84
2024/02/28 09:08:43;;;;;;;0.20;0.20;;;;;;;10.61;63.32;101989.88;4979687;28;20034;-85
2024/02/28 09:11:08;;;;;;;0.20;0.20;;;;;;;10.65;63.65;101991.50;4976777;28;20033;-84
2024/02/28 09:13:35;;;;;;;0.20;0.20;;;;;;;10.80;63.52;101985.88;4978535;28;20674;-86
2024/02/28 09:16:01;;;;;;;0.20;0.20;;;;;;;10.63;62.89;101973.44;4972422;28;20036;-83
2024/02/28 09:18:27;;;;;;;0.20;0.20;;;;;;;10.77;62.84;101977.34;4975041;28;20018;-90
2024/02/28 09:20:53;;;;;;;0.20;0.20;;;;;;;10.94;62.52;101982.06;4977873;28;20041;-94
2024/02/28 09:23:18;;;;;;;0.20;0.20;;;;;;;10.99;63.07;101977.59;4978056;28;20086;-89
2024/02/28 09:25:44;;;;;;;0.20;0.20;;;;;;;11.00;62.01;101974.94;4993091;28;20117;-89
2024/02/28 09:28:12;;;;;;;0.20;0.20;;;;;;;11.09;62.46;101985.03;4976976;28;20122;-90
2024/02/28 09:30:39;;;;;;;0.20;0.20;;;;;;;11.28;61.79;101984.50;4946895;28;20030;-92
2024/02/28 09:33:05;;;;;;;0.20;0.20;;;;;;;11.31;61.25;101992.19;4942298;28;20122;-92
2024/02/28 09:35:32;;;;;;;0.20;0.20;;;;;;;11.26;61.77;101962.97;4958396;28;20218;-89
2024/02/28 09:37:58;;;;;;;0.20;0.20;;;;;;;11.42;60.81;101977.16;4957126;28;20050;-87
2024/02/28 09:40:24;;;;;;;0.20;0.20;;;;;;;11.48;60.78;101967.44;4957529;28;20027;-88
2024/02/28 09:42:53;;;;;;;0.20;0.20;;;;;;;11.59;60.77;101984.41;4974033;28;20058;-90
2024/02/28 09:45:20;;;;;;;0.20;0.20;;;;;;;11.85;60.25;101981.00;4958792;28;20249;-92
2024/02/28 09:47:45;;;;;;;0.20;0.20;;;;;;;11.83;59.92;101983.66;4949949;28;20034;-84
2024/02/28 09:50:11;;;;;;;0.20;0.20;;;;;;;11.88;59.92;101978.31;4976383;28;20033;-92
2024/02/28 09:52:36;;;;;;;0.20;0.20;;;;;;;11.99;59.85;101971.03;4982261;28;20029;-89
2024/02/28 09:55:02;;;;;;;0.20;0.20;;;;;;;12.20;59.42;101972.91;5014237;28;20038;-88
2024/02/28 09:57:29;;;;;;;0.20;0.20;;;;;;;12.24;58.23;101958.91;4981323;28;20101;-92
2024/02/28 09:59:59;;;;;;;0.20;0.20;;;;;;;12.21;57.85;101953.00;4979432;28;20033;-89
2024/02/28 10:02:24;;;;;;;0.20;0.20;;;;;;;12.27;57.62;101968.34;4986462;28;20026;-86
2024/02/28 10:04:50;;;;;;;0.20;0.20;;;;;;;12.34;57.61;101967.22;4971641;28;20448;-86
2024/02/28 10:07:17;;;;;;;0.20;0.20;;;;;;;12.38;58.17;101962.78;4942082;28;20149;-83
2024/02/28 10:09:42;;;;;;;0.20;0.20;;;;;;;12.38;57.92;101966.22;4984838;28;20022;-84
2024/02/28 10:12:08;;;;;;;0.20;0.20;;;;;;;12.33;57.53;101937.84;4985727;28;20621;-83
2024/02/28 10:14:33;;;;;;;0.20;0.20;;;;;;;12.36;57.49;101949.84;4986496;28;20030;-86
2024/02/28 10:16:59;;;;;;;0.20;0.20;;;;;;;12.43;57.67;101948.75;4971247;28;20114;-87
2024/02/28 10:19:25;;;;;;;0.20;0.20;;;;;;;12.55;57.54;101943.09;4974539;28;20162;-86
2024/02/28 10:21:51;;;;;;;0.20;0.20;;;;;;;12.67;56.52;101944.41;4974511;28;20037;-90
2024/02/28 10:24:17;;;;;;;0.10;0.10;;;;;;;12.68;56.65;101933.09;4976993;28;20026;-90
2024/02/28 10:26:54;;;;;;;0.20;0.20;;;;;;;12.66;56.68;101929.72;4974475;28;20054;-92
2024/02/28 10:29:21;;;;;;;0.10;0.10;;;;;;;12.65;56.95;101930.63;4927473;28;20516;-89
2024/02/28 10:31:46;;;;;;;0.20;0.20;;;;;;;12.80;55.98;101937.03;4939884;28;20027;-88
2024/02/28 10:36:56;;;;;;;0.20;0.20;;;;;;;12.86;55.77;101927.25;4961756;28;20502;-91
2024/02/28 10:39:22;;;;;;;0.20;0.20;;;;;;;12.73;55.97;101907.00;4970330;28;20034;-85
2024/02/28 10:41:48;;;;;;;0.20;0.20;;;;;;;12.73;56.42;101909.59;4966523;28;20054;-88
2024/02/28 10:44:14;;;;;;;0.20;0.20;;;;;;;12.80;56.35;101919.69;4973562;28;20061;-87
2024/02/28 10:46:40;;;;;;;0.20;0.20;;;;;;;12.81;56.26;101886.78;4959213;28;20460;-85
2024/02/28 10:49:06;;;;;;;0.20;0.20;;;;;;;12.98;55.97;101915.56;4974160;28;20045;-90
2024/02/28 10:51:34;;;;;;;0.20;0.20;;;;;;;12.90;55.95;101908.06;4961997;28;20386;-89
2024/02/28 10:54:12;;;;;;;0.20;0.20;;;;;;;13.00;55.59;101913.75;4958589;28;20480;-88
2024/02/28 10:56:42;;;;;;;0.20;0.20;;;;;;;12.91;55.96;101908.91;4973260;28;20117;-90
2024/02/28 10:59:11;;;;;;;0.20;0.20;;;;;;;13.01;55.96;101910.22;4988948;28;20026;-93
2024/02/28 11:01:38;;;;;;;0.20;0.20;;;;;;;13.14;56.18;101900.19;4973332;28;20117;-89
2024/02/28 11:04:05;;;;;;;0.20;0.20;;;;;;;13.39;55.05;101911.34;4954622;28;20039;-90
2024/02/28 11:06:30;;;;;;;0.20;0.20;;;;;;;13.50;54.78;101908.31;4991067;28;20066;-93
2024/02/28 11:08:59;;;;;;;0.20;0.20;;;;;;;13.62;54.37;101902.63;4962358;28;20034;-92
2024/02/28 11:11:24;;;;;;;0.20;0.20;;;;;;;13.67;54.15;101892.03;4962844;28;20042;-91
2024/02/28 11:13:57;;;;;;;0.20;0.20;;;;;;;13.62;54.51;101883.56;4961127;28;20030;-89
2024/02/28 11:16:44;;;;;;;;;;;;;;;13.82;54.31;101888.78;4958588;28;20046;-94
2024/02/28 11:19:09;;;;;;;0.20;0.20;;;;;;;13.83;54.78;101877.47;4967819;28;20369;-90
2024/02/28 11:21:35;;;;;;;0.20;0.20;;;;;;;14.00;53.95;101888.00;4971730;28;20038;-92
2024/02/28 11:24:01;;;;;;;0.20;0.20;;;;;;;14.15;53.81;101877.81;4958859;28;20041;-95
2024/02/28 11:26:27;;;;;;;0.20;0.20;;;;;;;14.28;52.30;101871.19;4996992;28;20403;-92
2024/02/28 11:28:54;;;;;;;0.20;0.20;;;;;;;14.22;52.46;101866.22;4976694;28;20026;-89